sensor_id;sensor_type;location;lat;lon;timestamp;pressure;altitude;pressure_sealevel;temperature;humidity
42511;BME280;28141;51.120;17.114;2023-02-10T00:00:17;103290.36;;;23.34;21.84
42511;BME280;28141;51.120;17.114;2023-02-10T00:03:20;103299.52;;;23.34;22.06
42511;BME280;28141;51.120;17.114;2023-02-10T00:06:26;103297.27;;;23.38;21.99
42511;BME280;28141;51.120;17.114;2023-02-10T00:09:29;103292.97;;;23.43;21.57
42511;BME280;28141;51.120;17.114;2023-02-10T00:13:00;103304.37;;;23.40;21.82
42511;BME280;28141;51.120;17.114;2023-02-10T00:16:05;103305.92;;;23.35;21.91
42511;BME280;28141;51.120;17.114;2023-02-10T00:19:09;103306.25;;;23.32;21.73
42511;BME280;28141;51.120;17.114;2023-02-10T00:22:12;103303.82;;;23.28;21.58
42511;BME280;28141;51.120;17.114;2023-02-10T00:25:15;103309.35;;;23.28;21.60
42511;BME280;28141;51.120;17.114;2023-02-10T00:28:19;103314.17;;;23.26;22.10
42511;BME280;28141;51.120;17.114;2023-02-10T00:31:22;103319.55;;;23.28;21.62
42511;BME280;28141;51.120;17.114;2023-02-10T00:34:26;103308.30;;;23.21;21.88
42511;BME280;28141;51.120;17.114;2023-02-10T00:37:30;103306.55;;;23.20;22.04
42511;BME280;28141;51.120;17.114;2023-02-10T00:41:05;103311.22;;;23.20;22.00
42511;BME280;28141;51.120;17.114;2023-02-10T00:44:09;103312.41;;;23.17;21.97
42511;BME280;28141;51.120;17.114;2023-02-10T00:47:12;103308.46;;;23.20;22.11
42511;BME280;28141;51.120;17.114;2023-02-10T00:50:15;103319.69;;;23.18;21.82
42511;BME280;28141;51.120;17.114;2023-02-10T00:53:19;103303.10;;;23.18;21.78
42511;BME280;28141;51.120;17.114;2023-02-10T00:56:22;103311.05;;;23.13;21.93
42511;BME280;28141;51.120;17.114;2023-02-10T00:59:25;103317.45;;;23.14;22.32
42511;BME280;28141;51.120;17.114;2023-02-10T01:02:28;103315.33;;;23.08;22.03
42511;BME280;28141;51.120;17.114;2023-02-10T01:05:32;103313.09;;;23.03;22.29
42511;BME280;28141;51.120;17.114;2023-02-10T01:09:01;103315.65;;;23.05;22.09
42511;BME280;28141;51.120;17.114;2023-02-10T01:12:05;103309.78;;;23.00;22.34
42511;BME280;28141;51.120;17.114;2023-02-10T01:15:09;103311.34;;;23.02;21.89
42511;BME280;28141;51.120;17.114;2023-02-10T01:18:13;103296.50;;;23.03;22.09
42511;BME280;28141;51.120;17.114;2023-02-10T01:21:18;103294.41;;;23.05;21.89
42511;BME280;28141;51.120;17.114;2023-02-10T01:24:23;103290.26;;;23.01;22.15
42511;BME280;28141;51.120;17.114;2023-02-10T01:27:26;103289.56;;;22.99;22.13
42511;BME280;28141;51.120;17.114;2023-02-10T01:30:30;103278.66;;;22.98;21.90
42511;BME280;28141;51.120;17.114;2023-02-10T01:33:33;103285.05;;;22.98;22.21
42511;BME280;28141;51.120;17.114;2023-02-10T01:36:37;103285.05;;;22.98;22.29
42511;BME280;28141;51.120;17.114;2023-02-10T01:40:05;103288.82;;;22.89;22.19
42511;BME280;28141;51.120;17.114;2023-02-10T01:43:14;103276.38;;;22.93;22.27
42511;BME280;28141;51.120;17.114;2023-02-10T01:46:17;103274.16;;;22.97;22.14
42511;BME280;28141;51.120;17.114;2023-02-10T01:49:24;103271.22;;;22.90;22.19
42511;BME280;28141;51.120;17.114;2023-02-10T01:52:28;103274.68;;;22.92;22.20
42511;BME280;28141;51.120;17.114;2023-02-10T01:55:38;103280.01;;;22.93;22.16
42511;BME280;28141;51.120;17.114;2023-02-10T01:58:42;103276.06;;;22.96;22.06
42511;BME280;28141;51.120;17.114;2023-02-10T02:02:14;103272.89;;;22.83;22.20
42511;BME280;28141;51.120;17.114;2023-02-10T02:05:21;103277.76;;;22.89;22.21
42511;BME280;28141;51.120;17.114;2023-02-10T02:08:28;103293.48;;;22.88;22.19
42511;BME280;28141;51.120;17.114;2023-02-10T02:18:36;103293.93;;;22.76;22.30
42511;BME280;28141;51.120;17.114;2023-02-10T02:25:07;103295.51;;;22.78;22.24
42511;BME280;28141;51.120;17.114;2023-02-10T02:31:57;103287.06;;;22.80;22.29
42511;BME280;28141;51.120;17.114;2023-02-10T02:35:10;103294.32;;;22.81;22.19
42511;BME280;28141;51.120;17.114;2023-02-10T02:38:15;103289.11;;;22.78;22.38
42511;BME280;28141;51.120;17.114;2023-02-10T02:41:24;103289.65;;;22.81;22.33
42511;BME280;28141;51.120;17.114;2023-02-10T02:44:28;103294.21;;;22.73;22.30
42511;BME280;28141;51.120;17.114;2023-02-10T02:58:01;103282.44;;;22.63;22.29
42511;BME280;28141;51.120;17.114;2023-02-10T03:01:13;103273.34;;;22.70;22.24
42511;BME280;28141;51.120;17.114;2023-02-10T03:04:17;103276.97;;;22.71;22.41
42511;BME280;28141;51.120;17.114;2023-02-10T03:07:21;103279.73;;;22.71;22.18
42511;BME280;28141;51.120;17.114;2023-02-10T03:10:52;103269.19;;;22.74;22.28
42511;BME280;28141;51.120;17.114;2023-02-10T03:13:55;103271.96;;;22.74;22.27
42511;BME280;28141;51.120;17.114;2023-02-10T03:16:58;103280.92;;;22.68;22.35
42511;BME280;28141;51.120;17.114;2023-02-10T03:20:02;103281.62;;;22.70;22.35
42511;BME280;28141;51.120;17.114;2023-02-10T03:23:05;103279.38;;;22.74;22.40
42511;BME280;28141;51.120;17.114;2023-02-10T03:26:09;103295.96;;;22.74;22.25
42511;BME280;28141;51.120;17.114;2023-02-10T03:29:14;103296.31;;;22.71;21.98
42511;BME280;28141;51.120;17.114;2023-02-10T03:32:18;103304.92;;;22.68;22.54
42511;BME280;28141;51.120;17.114;2023-02-10T03:35:22;103309.03;;;22.64;22.29
42511;BME280;28141;51.120;17.114;2023-02-10T03:38:27;103310.77;;;22.65;22.26
42511;BME280;28141;51.120;17.114;2023-02-10T03:41:56;103308.40;;;22.70;22.29
42511;BME280;28141;51.120;17.114;2023-02-10T03:45:00;103306.66;;;22.69;22.33
42511;BME280;28141;51.120;17.114;2023-02-10T03:48:03;103313.37;;;22.66;22.38
42511;BME280;28141;51.120;17.114;2023-02-10T03:51:07;103306.97;;;22.66;22.32
42511;BME280;28141;51.120;17.114;2023-02-10T03:54:11;103310.44;;;22.68;22.50
42511;BME280;28141;51.120;17.114;2023-02-10T03:57:15;103315.97;;;22.68;22.35
42511;BME280;28141;51.120;17.114;2023-02-10T04:00:18;103323.72;;;22.64;22.19
42511;BME280;28141;51.120;17.114;2023-02-10T04:03:22;103328.05;;;22.67;22.15
42511;BME280;28141;51.120;17.114;2023-02-10T04:06:26;103327.50;;;22.63;22.62
42511;BME280;28141;51.120;17.114;2023-02-10T04:09:30;103316.84;;;22.68;22.30
42511;BME280;28141;51.120;17.114;2023-02-10T04:12:34;103319.92;;;22.65;22.31
42511;BME280;28141;51.120;17.114;2023-02-10T04:16:09;103323.72;;;22.64;22.30
42511;BME280;28141;51.120;17.114;2023-02-10T04:19:13;103320.95;;;22.64;22.61
42511;BME280;28141;51.120;17.114;2023-02-10T04:22:16;103329.55;;;22.61;22.48
42511;BME280;28141;51.120;17.114;2023-02-10T04:25:20;103331.13;;;22.64;22.24
42511;BME280;28141;51.120;17.114;2023-02-10T04:28:24;103332.88;;;22.65;22.21
42511;BME280;28141;51.120;17.114;2023-02-10T04:31:28;103325.93;;;22.61;22.46
42511;BME280;28141;51.120;17.114;2023-02-10T04:34:31;103321.62;;;22.58;22.33
42511;BME280;28141;51.120;17.114;2023-02-10T04:37:35;103319.38;;;22.62;22.28
42511;BME280;28141;51.120;17.114;2023-02-10T04:40:38;103316.95;;;22.58;22.30
42511;BME280;28141;51.120;17.114;2023-02-10T04:44:09;103314.88;;;22.61;22.34
42511;BME280;28141;51.120;17.114;2023-02-10T04:47:12;103329.20;;;22.56;22.42
42511;BME280;28141;51.120;17.114;2023-02-10T04:50:15;103329.04;;;22.57;22.61
42511;BME280;28141;51.120;17.114;2023-02-10T04:53:19;103321.94;;;22.55;22.43
42511;BME280;28141;51.120;17.114;2023-02-10T04:56:23;103331.41;;;22.52;22.35
42511;BME280;28141;51.120;17.114;2023-02-10T04:59:26;103325.33;;;22.23;22.61
42511;BME280;28141;51.120;17.114;2023-02-10T05:02:29;103326.67;;;22.19;22.75
42511;BME280;28141;51.120;17.114;2023-02-10T05:05:33;103329.59;;;22.17;22.73
42511;BME280;28141;51.120;17.114;2023-02-10T05:08:36;103322.83;;;22.12;22.65
42511;BME280;28141;51.120;17.114;2023-02-10T05:11:44;103324.17;;;22.08;22.67
42511;BME280;28141;51.120;17.114;2023-02-10T05:14:47;103318.03;;;22.14;22.60
42511;BME280;28141;51.120;17.114;2023-02-10T05:18:19;103338.06;;;22.16;22.55
42511;BME280;28141;51.120;17.114;2023-02-10T05:21:22;103334.64;;;22.22;22.33
42511;BME280;28141;51.120;17.114;2023-02-10T05:24:26;103339.24;;;22.13;22.50
42511;BME280;28141;51.120;17.114;2023-02-10T05:27:32;103340.64;;;22.17;22.36
42511;BME280;28141;51.120;17.114;2023-02-10T05:30:36;103347.89;;;22.18;22.24
42511;BME280;28141;51.120;17.114;2023-02-10T05:33:39;103335.05;;;22.27;22.20
42511;BME280;28141;51.120;17.114;2023-02-10T05:36:42;103337.09;;;22.25;21.94
42511;BME280;28141;51.120;17.114;2023-02-10T05:39:47;103347.12;;;22.26;22.02
42511;BME280;28141;51.120;17.114;2023-02-10T05:42:50;103356.48;;;22.33;21.75
42511;BME280;28141;51.120;17.114;2023-02-10T05:45:54;103364.61;;;22.35;21.74
42511;BME280;28141;51.120;17.114;2023-02-10T05:48:57;103358.07;;;22.36;21.94
42511;BME280;28141;51.120;17.114;2023-02-10T05:52:00;103377.23;;;22.37;22.04
42511;BME280;28141;51.120;17.114;2023-02-10T05:55:04;103373.00;;;22.51;22.21
42511;BME280;28141;51.120;17.114;2023-02-10T05:58:08;103374.83;;;22.60;21.87
42511;BME280;28141;51.120;17.114;2023-02-10T06:01:11;103369.05;;;22.53;21.62
42511;BME280;28141;51.120;17.114;2023-02-10T06:04:48;103390.17;;;22.63;21.71
42511;BME280;28141;51.120;17.114;2023-02-10T06:07:52;103380.55;;;22.67;21.67
42511;BME280;28141;51.120;17.114;2023-02-10T06:10:58;103384.90;;;22.69;21.63
42511;BME280;28141;51.120;17.114;2023-02-10T06:14:02;103379.88;;;22.73;21.74
42511;BME280;28141;51.120;17.114;2023-02-10T06:17:06;103388.37;;;22.71;21.62
42511;BME280;28141;51.120;17.114;2023-02-10T06:20:12;103398.12;;;22.83;21.56
42511;BME280;28141;51.120;17.114;2023-02-10T06:23:15;103402.70;;;22.75;21.75
42511;BME280;28141;51.120;17.114;2023-02-10T06:26:18;103411.95;;;22.83;21.70
42511;BME280;28141;51.120;17.114;2023-02-10T06:29:22;103423.31;;;23.06;21.31
42511;BME280;28141;51.120;17.114;2023-02-10T06:32:26;103430.97;;;23.12;21.35
42511;BME280;28141;51.120;17.114;2023-02-10T06:35:57;103422.29;;;23.07;21.20
42511;BME280;28141;51.120;17.114;2023-02-10T06:39:01;103413.35;;;23.13;21.32
42511;BME280;28141;51.120;17.114;2023-02-10T06:42:04;103411.77;;;23.11;21.12
42511;BME280;28141;51.120;17.114;2023-02-10T06:45:08;103423.70;;;23.11;21.15
42511;BME280;28141;51.120;17.114;2023-02-10T06:48:12;103430.43;;;23.09;21.13
42511;BME280;28141;51.120;17.114;2023-02-10T06:51:16;103427.50;;;23.10;21.02
42511;BME280;28141;51.120;17.114;2023-02-10T06:54:20;103430.97;;;23.12;21.08
42511;BME280;28141;51.120;17.114;2023-02-10T06:57:25;103423.59;;;23.21;20.89
42511;BME280;28141;51.120;17.114;2023-02-10T07:00:29;103425.52;;;23.28;20.60
42511;BME280;28141;51.120;17.114;2023-02-10T07:03:35;103431.88;;;23.21;20.49
42511;BME280;28141;51.120;17.114;2023-02-10T07:06:39;103435.70;;;23.28;21.08
42511;BME280;28141;51.120;17.114;2023-02-10T07:10:09;103422.74;;;23.28;20.89
42511;BME280;28141;51.120;17.114;2023-02-10T07:13:14;103429.00;;;23.39;20.94
42511;BME280;28141;51.120;17.114;2023-02-10T07:16:18;103433.66;;;23.30;21.51
42511;BME280;28141;51.120;17.114;2023-02-10T07:19:21;103439.05;;;23.40;21.42
42511;BME280;28141;51.120;17.114;2023-02-10T07:22:25;103446.44;;;23.57;21.53
42511;BME280;28141;51.120;17.114;2023-02-10T07:25:29;103444.35;;;23.59;21.22
42511;BME280;28141;51.120;17.114;2023-02-10T07:28:33;103443.87;;;23.72;21.11
42511;BME280;28141;51.120;17.114;2023-02-10T07:31:37;103446.01;;;23.86;21.25
42511;BME280;28141;51.120;17.114;2023-02-10T07:34:41;103438.89;;;23.83;21.23
42511;BME280;28141;51.120;17.114;2023-02-10T07:38:12;103458.24;;;23.67;21.05
42511;BME280;28141;51.120;17.114;2023-02-10T07:41:16;103464.10;;;23.64;21.02
42511;BME280;28141;51.120;17.114;2023-02-10T07:44:20;103465.52;;;23.68;21.12
42511;BME280;28141;51.120;17.114;2023-02-10T07:47:26;103463.77;;;23.67;20.96
42511;BME280;28141;51.120;17.114;2023-02-10T07:50:30;103461.02;;;23.75;20.84
42511;BME280;28141;51.120;17.114;2023-02-10T07:53:34;103443.01;;;23.71;21.08
42511;BME280;28141;51.120;17.114;2023-02-10T07:56:40;103440.60;;;23.68;21.19
42511;BME280;28141;51.120;17.114;2023-02-10T07:59:44;103444.27;;;23.85;21.16
42511;BME280;28141;51.120;17.114;2023-02-10T08:02:48;103453.77;;;23.82;21.09
42511;BME280;28141;51.120;17.114;2023-02-10T08:06:24;103456.21;;;23.85;21.18
42511;BME280;28141;51.120;17.114;2023-02-10T08:09:28;103448.24;;;23.90;21.27
42511;BME280;28141;51.120;17.114;2023-02-10T08:12:32;103448.45;;;23.97;21.33
42511;BME280;28141;51.120;17.114;2023-02-10T08:15:36;103449.33;;;23.97;21.25
42511;BME280;28141;51.120;17.114;2023-02-10T08:18:40;103434.95;;;24.02;21.37
42511;BME280;28141;51.120;17.114;2023-02-10T08:21:44;103453.67;;;24.16;21.02
42511;BME280;28141;51.120;17.114;2023-02-10T08:24:47;103457.72;;;24.22;21.15
42511;BME280;28141;51.120;17.114;2023-02-10T08:27:51;103453.22;;;24.29;21.03
42511;BME280;28141;51.120;17.114;2023-02-10T08:31:20;103451.13;;;24.39;20.97
42511;BME280;28141;51.120;17.114;2023-02-10T08:34:25;103435.55;;;24.46;21.02
42511;BME280;28141;51.120;17.114;2023-02-10T08:37:31;103450.61;;;24.35;20.97
42511;BME280;28141;51.120;17.114;2023-02-10T08:40:35;103448.20;;;24.32;21.09
42511;BME280;28141;51.120;17.114;2023-02-10T08:43:39;103443.70;;;24.31;21.16
42511;BME280;28141;51.120;17.114;2023-02-10T08:46:43;103442.47;;;24.26;21.24
42511;BME280;28141;51.120;17.114;2023-02-10T08:49:47;103454.25;;;24.36;21.24
42511;BME280;28141;51.120;17.114;2023-02-10T08:52:50;103455.48;;;24.33;21.48
42511;BME280;28141;51.120;17.114;2023-02-10T08:56:18;103461.01;;;24.50;21.35
42511;BME280;28141;51.120;17.114;2023-02-10T08:59:23;103457.72;;;24.38;21.50
42511;BME280;28141;51.120;17.114;2023-02-10T09:02:26;103450.44;;;24.37;21.72
42511;BME280;28141;51.120;17.114;2023-02-10T09:05:30;103453.58;;;24.42;21.63
42511;BME280;28141;51.120;17.114;2023-02-10T09:08:36;103437.63;;;24.36;21.71
42511;BME280;28141;51.120;17.114;2023-02-10T09:11:43;103442.12;;;24.37;21.87
42511;BME280;28141;51.120;17.114;2023-02-10T09:14:46;103435.70;;;24.45;21.65
42511;BME280;28141;51.120;17.114;2023-02-10T09:17:50;103444.91;;;24.53;22.06
42511;BME280;28141;51.120;17.114;2023-02-10T09:21:18;103461.88;;;24.58;21.90
42511;BME280;28141;51.120;17.114;2023-02-10T09:24:22;103448.70;;;24.68;21.83
42511;BME280;28141;51.120;17.114;2023-02-10T09:27:27;103456.34;;;24.74;22.19
42511;BME280;28141;51.120;17.114;2023-02-10T09:30:31;103459.79;;;24.85;21.65
42511;BME280;28141;51.120;17.114;2023-02-10T09:33:34;103455.60;;;24.89;21.85
42511;BME280;28141;51.120;17.114;2023-02-10T09:36:39;103464.82;;;24.81;21.68
42511;BME280;28141;51.120;17.114;2023-02-10T09:39:43;103465.15;;;24.78;21.77
42511;BME280;28141;51.120;17.114;2023-02-10T09:43:39;103474.15;;;24.88;21.97
42511;BME280;28141;51.120;17.114;2023-02-10T09:56:19;103474.70;;;24.84;22.09
42511;BME280;28141;51.120;17.114;2023-02-10T09:59:51;103483.55;;;24.95;21.99
42511;BME280;28141;51.120;17.114;2023-02-10T10:02:58;103490.67;;;24.98;21.86
42511;BME280;28141;51.120;17.114;2023-02-10T10:06:10;103485.07;;;24.90;22.04
42511;BME280;28141;51.120;17.114;2023-02-10T10:09:27;103495.84;;;25.01;21.92
42511;BME280;28141;51.120;17.114;2023-02-10T10:12:32;103488.55;;;25.00;22.34
42511;BME280;28141;51.120;17.114;2023-02-10T10:19:27;103484.05;;;24.99;22.38
42511;BME280;28141;51.120;17.114;2023-02-10T10:26:31;103489.78;;;25.05;22.22
42511;BME280;28141;51.120;17.114;2023-02-10T10:29:39;103490.45;;;25.16;22.13
42511;BME280;28141;51.120;17.114;2023-02-10T10:32:46;103482.09;;;25.24;22.40
42511;BME280;28141;51.120;17.114;2023-02-10T10:35:51;103475.16;;;25.28;22.24
42511;BME280;28141;51.120;17.114;2023-02-10T10:42:41;103471.83;;;25.32;22.17
42511;BME280;28141;51.120;17.114;2023-02-10T10:45:49;103462.15;;;25.28;21.98
42511;BME280;28141;51.120;17.114;2023-02-10T10:48:54;103463.89;;;25.29;22.23
42511;BME280;28141;51.120;17.114;2023-02-10T10:51:58;103466.32;;;25.24;22.24
42511;BME280;28141;51.120;17.114;2023-02-10T10:55:10;103469.05;;;25.32;22.27
42511;BME280;28141;51.120;17.114;2023-02-10T11:01:54;103447.07;;;25.31;22.32
42511;BME280;28141;51.120;17.114;2023-02-10T11:05:05;103456.04;;;25.41;22.13
42511;BME280;28141;51.120;17.114;2023-02-10T11:08:21;103463.17;;;25.35;22.42
42511;BME280;28141;51.120;17.114;2023-02-10T11:14:42;103452.09;;;25.27;22.59
42511;BME280;28141;51.120;17.114;2023-02-10T11:18:18;103446.72;;;25.26;22.50
42511;BME280;28141;51.120;17.114;2023-02-10T11:21:33;103445.34;;;25.30;22.09
42511;BME280;28141;51.120;17.114;2023-02-10T11:24:48;103445.81;;;25.33;22.61
42511;BME280;28141;51.120;17.114;2023-02-10T11:27:52;103454.48;;;25.38;22.66
42511;BME280;28141;51.120;17.114;2023-02-10T11:31:33;103451.32;;;25.50;22.46
42511;BME280;28141;51.120;17.114;2023-02-10T11:34:44;103436.59;;;25.49;22.56
42511;BME280;28141;51.120;17.114;2023-02-10T11:37:55;103440.22;;;25.50;22.30
42511;BME280;28141;51.120;17.114;2023-02-10T11:41:03;103448.18;;;25.61;22.31
42511;BME280;28141;51.120;17.114;2023-02-10T11:44:37;103440.17;;;25.58;22.36
42511;BME280;28141;51.120;17.114;2023-02-10T11:47:42;103457.86;;;25.65;22.35
42511;BME280;28141;51.120;17.114;2023-02-10T11:50:46;103444.31;;;25.70;21.92
42511;BME280;28141;51.120;17.114;2023-02-10T11:53:50;103441.84;;;25.75;21.89
42511;BME280;28141;51.120;17.114;2023-02-10T12:17:31;103447.33;;;25.52;22.93
42511;BME280;28141;51.120;17.114;2023-02-10T12:34:13;103444.90;;;25.49;22.75
42511;BME280;28141;51.120;17.114;2023-02-10T12:54:34;103450.94;;;25.53;22.94
42511;BME280;28141;51.120;17.114;2023-02-10T12:57:44;103450.99;;;25.44;23.06
42511;BME280;28141;51.120;17.114;2023-02-10T13:13:29;103447.90;;;25.31;23.56
42511;BME280;28141;51.120;17.114;2023-02-10T13:16:34;103446.16;;;25.38;23.02
42511;BME280;28141;51.120;17.114;2023-02-10T13:23:04;103448.89;;;25.46;23.04
42511;BME280;28141;51.120;17.114;2023-02-10T13:36:25;103441.26;;;25.49;23.35
42511;BME280;28141;51.120;17.114;2023-02-10T13:39:59;103452.49;;;25.55;23.42
42511;BME280;28141;51.120;17.114;2023-02-10T13:43:05;103446.95;;;25.55;23.30
42511;BME280;28141;51.120;17.114;2023-02-10T13:49:25;103442.82;;;25.51;23.19
42511;BME280;28141;51.120;17.114;2023-02-10T13:52:32;103449.20;;;25.60;23.62
42511;BME280;28141;51.120;17.114;2023-02-10T13:56:14;103451.44;;;25.64;23.46
42511;BME280;28141;51.120;17.114;2023-02-10T13:59:26;103466.03;;;25.58;23.73
42511;BME280;28141;51.120;17.114;2023-02-10T14:02:30;103467.23;;;25.64;23.44
42511;BME280;28141;51.120;17.114;2023-02-10T14:05:36;103471.74;;;25.65;23.30
42511;BME280;28141;51.120;17.114;2023-02-10T14:08:42;103477.86;;;25.60;23.43
42511;BME280;28141;51.120;17.114;2023-02-10T14:12:28;103477.13;;;25.58;23.61
42511;BME280;28141;51.120;17.114;2023-02-10T14:15:36;103469.66;;;25.59;23.80
42511;BME280;28141;51.120;17.114;2023-02-10T14:18:43;103471.40;;;25.60;23.29
42511;BME280;28141;51.120;17.114;2023-02-10T14:21:49;103472.30;;;25.52;23.59
42511;BME280;28141;51.120;17.114;2023-02-10T14:24:56;103471.75;;;25.57;23.65
42511;BME280;28141;51.120;17.114;2023-02-10T14:28:34;103461.20;;;25.60;23.61
42511;BME280;28141;51.120;17.114;2023-02-10T14:31:39;103470.22;;;25.62;23.75
42511;BME280;28141;51.120;17.114;2023-02-10T14:34:54;103467.75;;;25.67;23.36
42511;BME280;28141;51.120;17.114;2023-02-10T14:37:59;103477.30;;;25.57;23.64
42511;BME280;28141;51.120;17.114;2023-02-10T14:41:03;103474.52;;;25.57;23.69
42511;BME280;28141;51.120;17.114;2023-02-10T14:47:47;103474.61;;;25.40;23.76
42511;BME280;28141;51.120;17.114;2023-02-10T14:51:16;103472.18;;;25.37;23.30
42511;BME280;28141;51.120;17.114;2023-02-10T14:54:21;103470.62;;;25.35;23.67
42511;BME280;28141;51.120;17.114;2023-02-10T14:57:27;103474.26;;;25.35;23.22
42511;BME280;28141;51.120;17.114;2023-02-10T15:04:15;103474.26;;;25.35;23.46
42511;BME280;28141;51.120;17.114;2023-02-10T15:07:24;103476.65;;;25.46;23.13
42511;BME280;28141;51.120;17.114;2023-02-10T15:10:37;103478.04;;;25.51;23.59
42511;BME280;28141;51.120;17.114;2023-02-10T15:13:45;103483.29;;;25.37;23.23
42511;BME280;28141;51.120;17.114;2023-02-10T15:17:21;103478.95;;;25.35;23.43
42511;BME280;28141;51.120;17.114;2023-02-10T15:20:30;103473.39;;;25.35;23.28
42511;BME280;28141;51.120;17.114;2023-02-10T15:23:34;103474.61;;;25.32;23.37
42511;BME280;28141;51.120;17.114;2023-02-10T15:26:38;103478.42;;;25.31;23.61
42511;BME280;28141;51.120;17.114;2023-02-10T15:29:44;103470.66;;;25.27;23.05
42511;BME280;28141;51.120;17.114;2023-02-10T15:32:54;103473.79;;;25.16;23.33
42511;BME280;28141;51.120;17.114;2023-02-10T15:36:29;103481.43;;;25.14;23.47
42511;BME280;28141;51.120;17.114;2023-02-10T15:39:35;103483.19;;;25.06;23.27
42511;BME280;28141;51.120;17.114;2023-02-10T15:42:39;103479.55;;;25.06;23.45
42511;BME280;28141;51.120;17.114;2023-02-10T15:45:43;103481.98;;;25.09;23.47
42511;BME280;28141;51.120;17.114;2023-02-10T15:48:47;103478.15;;;25.02;23.64
42511;BME280;28141;51.120;17.114;2023-02-10T15:51:53;103476.97;;;24.96;23.41
42511;BME280;28141;51.120;17.114;2023-02-10T15:55:00;103477.13;;;24.95;23.47
42511;BME280;28141;51.120;17.114;2023-02-10T15:58:28;103477.78;;;24.89;23.57
42511;BME280;28141;51.120;17.114;2023-02-10T16:01:32;103481.60;;;24.88;23.93
42511;BME280;28141;51.120;17.114;2023-02-10T16:04:35;103480.56;;;24.89;23.57
42511;BME280;28141;51.120;17.114;2023-02-10T16:07:39;103484.03;;;24.91;23.48
42511;BME280;28141;51.120;17.114;2023-02-10T16:10:43;103492.36;;;24.83;23.45
42511;BME280;28141;51.120;17.114;2023-02-10T16:13:47;103488.56;;;24.84;23.53
42511;BME280;28141;51.120;17.114;2023-02-10T16:16:56;103493.08;;;24.77;23.92
42511;BME280;28141;51.120;17.114;2023-02-10T16:20:00;103506.58;;;24.71;23.77
42511;BME280;28141;51.120;17.114;2023-02-10T16:23:27;103506.42;;;24.65;23.66
42511;BME280;28141;51.120;17.114;2023-02-10T16:26:33;103505.17;;;24.67;23.54
42511;BME280;28141;51.120;17.114;2023-02-10T16:29:36;103503.11;;;24.61;24.02
42511;BME280;28141;51.120;17.114;2023-02-10T16:32:41;103505.17;;;24.59;23.70
42511;BME280;28141;51.120;17.114;2023-02-10T16:35:44;103502.78;;;24.64;23.50
42511;BME280;28141;51.120;17.114;2023-02-10T16:38:48;103502.59;;;24.58;23.60
42511;BME280;28141;51.120;17.114;2023-02-10T16:41:53;103503.12;;;24.53;23.75
42511;BME280;28141;51.120;17.114;2023-02-10T16:44:56;103516.10;;;24.53;23.69
42511;BME280;28141;51.120;17.114;2023-02-10T16:48:24;103503.28;;;24.52;23.73
42511;BME280;28141;51.120;17.114;2023-02-10T16:51:28;103504.66;;;24.48;23.71
42511;BME280;28141;51.120;17.114;2023-02-10T16:54:31;103503.28;;;24.44;23.80
42511;BME280;28141;51.120;17.114;2023-02-10T16:57:35;103506.38;;;24.49;23.78
42511;BME280;28141;51.120;17.114;2023-02-10T17:00:38;103507.44;;;24.48;23.69
42511;BME280;28141;51.120;17.114;2023-02-10T17:03:42;103494.45;;;24.48;23.89
42511;BME280;28141;51.120;17.114;2023-02-10T17:06:48;103498.78;;;24.43;23.74
42511;BME280;28141;51.120;17.114;2023-02-10T17:09:52;103502.91;;;24.47;23.72
42511;BME280;28141;51.120;17.114;2023-02-10T17:13:23;103507.77;;;24.45;23.71
42511;BME280;28141;51.120;17.114;2023-02-10T17:16:33;103507.05;;;24.34;23.59
42511;BME280;28141;51.120;17.114;2023-02-10T17:19:38;103513.83;;;24.40;23.79
42511;BME280;28141;51.120;17.114;2023-02-10T17:22:41;103510.20;;;24.31;23.80
42511;BME280;28141;51.120;17.114;2023-02-10T17:25:47;103505.52;;;24.40;23.84
42511;BME280;28141;51.120;17.114;2023-02-10T17:28:51;103511.59;;;24.44;23.91
42511;BME280;28141;51.120;17.114;2023-02-10T17:31:54;103513.13;;;24.38;23.71
42511;BME280;28141;51.120;17.114;2023-02-10T17:34:58;103516.27;;;24.43;23.82
42511;BME280;28141;51.120;17.114;2023-02-10T17:38:26;103516.77;;;24.38;23.68
42511;BME280;28141;51.120;17.114;2023-02-10T17:41:41;103510.37;;;24.30;23.93
42511;BME280;28141;51.120;17.114;2023-02-10T17:44:45;103524.05;;;24.31;23.79
42511;BME280;28141;51.120;17.114;2023-02-10T17:47:48;103510.68;;;24.27;23.91
42511;BME280;28141;51.120;17.114;2023-02-10T17:50:51;103526.65;;;24.33;23.73
42511;BME280;28141;51.120;17.114;2023-02-10T17:53:57;103527.13;;;24.28;23.90
42511;BME280;28141;51.120;17.114;2023-02-10T17:57:00;103522.48;;;24.37;23.78
42511;BME280;28141;51.120;17.114;2023-02-10T18:00:29;103517.81;;;24.37;23.87
42511;BME280;28141;51.120;17.114;2023-02-10T18:03:33;103510.70;;;24.35;23.65
42511;BME280;28141;51.120;17.114;2023-02-10T18:06:37;103512.46;;;24.44;23.80
42511;BME280;28141;51.120;17.114;2023-02-10T18:09:41;103516.60;;;24.40;23.88
42511;BME280;28141;51.120;17.114;2023-02-10T18:12:44;103517.30;;;24.42;23.79
42511;BME280;28141;51.120;17.114;2023-02-10T18:15:48;103514.17;;;24.45;23.84
42511;BME280;28141;51.120;17.114;2023-02-10T18:18:52;103527.52;;;24.42;23.88
42511;BME280;28141;51.120;17.114;2023-02-10T18:21:58;103514.54;;;24.50;23.93
42511;BME280;28141;51.120;17.114;2023-02-10T18:25:29;103523.89;;;24.41;23.85
42511;BME280;28141;51.120;17.114;2023-02-10T18:28:34;103522.14;;;24.48;23.90
42511;BME280;28141;51.120;17.114;2023-02-10T18:31:37;103524.41;;;24.53;23.91